.
WxDataArchive / Data Records for 2014-03-01
2014-02-28 March 2014 2014-03-02

Data Records for Saturday, 01 March 2014

Time	Temp	Chill	HIndex	Humid	Dewpt	 Wind 	HiWind	WindDir	Rain 	Barom
-----	----	-----	------	-----	-----	------	------	-------	-----	-----
00:00	17.8	17.8	17.8	67	8.7	0	0	---	0.00	30.100 
00:05	17.5	17.5	17.5	67	8.4	0	0	---	0.00	30.100 
00:10	17.3	17.3	17.3	69	8.9	0	0	---	0.00	30.100 
00:15	17.3	17.3	17.3	69	8.9	0	0	---	0.00	30.097 
00:20	17.3	17.3	17.3	71	9.5	0	0	---	0.00	30.097 
00:25	17.5	17.5	17.5	71	9.7	0	0	---	0.00	30.097 
00:30	17.7	17.7	17.7	71	9.9	0	0	---	0.00	30.096 
00:35	17.8	17.8	17.8	71	10.0	0	0	---	0.00	30.096 
00:40	17.8	17.8	17.8	71	10.0	0	0	---	0.00	30.096 
00:45	17.8	17.8	17.8	72	10.3	0	0	---	0.00	30.089 
00:50	17.8	17.8	17.8	72	10.3	0	0	---	0.00	30.089 
00:55	17.7	17.7	17.7	72	10.2	0	0	---	0.00	30.089 
01:00	17.7	17.7	17.7	72	10.2	0	0	---	0.00	30.086 
01:05	17.7	17.7	17.7	72	10.2	0	0	---	0.00	30.086 
01:10	17.7	17.7	17.7	72	10.2	0	0	---	0.00	30.086 
01:15	17.7	17.7	17.7	72	10.2	0	0	---	0.00	30.081 
01:20	17.7	17.7	17.7	73	10.5	0	0	---	0.00	30.081 
01:25	17.7	17.7	17.7	73	10.5	0	0	---	0.00	30.081 
01:30	17.8	17.8	17.8	73	10.6	0	0	---	0.00	30.074 
01:35	17.8	17.8	17.8	73	10.6	0	0	---	0.00	30.074 
01:40	18.0	18.0	18.0	73	10.8	0	0	---	0.00	30.074 
01:45	18.1	18.1	18.1	73	10.9	0	0	---	0.00	30.072 
01:50	18.3	18.3	18.3	73	11.1	0	0	---	0.00	30.072 
01:55	18.4	18.4	18.4	72	10.9	0	0	---	0.00	30.072 
02:00	18.8	18.8	18.8	72	11.3	0	0	---	0.00	30.067 
02:05	18.9	18.9	18.9	71	11.1	0	0	---	0.00	30.067 
02:10	19.1	19.1	19.1	70	11.0	0	0	---	0.00	30.067 
02:15	19.1	19.1	19.1	70	11.0	0	0	---	0.00	30.070 
02:20	19.1	19.1	19.1	69	10.6	0	0	---	0.00	30.070 
02:25	19.1	19.1	19.1	69	10.6	0	0	---	0.00	30.070 
02:30	18.9	18.9	18.9	69	10.4	0	0	---	0.00	30.068 
02:35	18.8	18.8	18.8	69	10.3	0	0	---	0.00	30.068 
02:40	18.6	18.6	18.6	69	10.2	0	0	---	0.00	30.068 
02:45	18.4	18.4	18.4	69	10.0	0	0	---	0.00	30.066 
02:50	18.3	18.3	18.3	69	9.9	0	0	---	0.00	30.066 
02:55	18.3	18.3	18.3	69	9.9	0	0	---	0.00	30.066 
03:00	18.4	18.4	18.4	70	10.3	0	0	---	0.00	30.065 
03:05	18.4	18.4	18.4	70	10.3	0	0	---	0.00	30.065 
03:10	18.4	18.4	18.4	70	10.3	0	0	---	0.00	30.065 
03:15	18.4	18.4	18.4	70	10.3	0	0	---	0.00	30.067 
03:20	18.4	18.4	18.4	70	10.3	0	0	---	0.00	30.067 
03:25	18.6	18.6	18.6	70	10.5	0	0	---	0.00	30.067 
03:30	18.6	18.6	18.6	70	10.5	0	0	---	0.00	30.061 
03:35	18.8	18.8	18.8	70	10.7	0	0	---	0.00	30.061 
03:40	19.1	19.1	19.1	70	11.0	0	0	---	0.00	30.061 
03:45	19.4	19.4	19.4	70	11.2	0	0	---	0.00	30.060 
03:50	19.4	19.4	19.4	70	11.2	0	0	---	0.00	30.060 
03:55	19.7	19.7	19.7	69	11.2	0	0	---	0.00	30.060 
04:00	19.7	19.7	19.7	69	11.2	0	0	---	0.00	30.071 
04:05	19.5	19.5	19.5	70	11.3	0	0	---	0.00	30.071 
04:10	19.7	19.7	19.7	69	11.2	0	0	---	0.00	30.071 
04:15	19.7	19.7	19.7	69	11.2	0	0	---	0.00	30.067 
04:20	19.7	19.7	19.7	69	11.2	0	0	---	0.00	30.067 
04:25	19.7	19.7	19.7	70	11.5	0	0	---	0.00	30.067 
04:30	19.9	19.9	19.9	70	11.7	0	0	---	0.00	30.071 
04:35	20.0	20.0	20.0	70	11.8	0	0	---	0.00	30.071 
04:40	20.0	20.0	20.0	70	11.8	0	0	---	0.00	30.071 
04:45	20.0	20.0	20.0	70	11.8	0	0	---	0.00	30.070 
04:50	20.2	20.2	20.2	70	12.0	0	0	---	0.00	30.070 
04:55	20.2	20.2	20.2	70	12.0	0	0	---	0.00	30.070 
05:00	20.3	20.3	20.3	70	12.1	0	0	---	0.00	30.072 
05:05	20.3	20.3	20.3	70	12.1	0	0	---	0.00	30.072 
05:10	20.3	20.3	20.3	70	12.1	0	0	---	0.00	30.072 
05:15	20.3	20.3	20.3	69	11.8	0	0	---	0.00	30.073 
05:20	20.3	20.3	20.3	69	11.8	0	0	---	0.00	30.073 
05:25	20.3	20.3	20.3	69	11.8	0	0	---	0.00	30.073 
05:30	20.2	20.2	20.2	69	11.7	0	0	---	0.00	30.071 
05:35	20.2	20.2	20.2	69	11.7	0	0	---	0.00	30.071 
05:40	20.2	20.2	20.2	69	11.7	0	0	---	0.00	30.071 
05:45	20.2	20.2	20.2	69	11.7	0	0	---	0.00	30.073 
05:50	20.2	20.2	20.2	69	11.7	0	0	---	0.00	30.073 
05:55	20.0	20.0	20.0	69	11.5	0	0	---	0.00	30.073 
06:00	20.0	20.0	20.0	69	11.5	0	0	---	0.00	30.073 
06:05	20.0	20.0	20.0	69	11.5	0	0	---	0.00	30.073 
06:10	20.2	20.2	20.2	70	12.0	0	0	---	0.00	30.073 
06:15	20.6	20.6	20.6	69	12.1	0	0	---	0.00	30.075 
06:20	21.0	21.0	21.0	69	12.5	0	0	---	0.00	30.075 
06:25	21.4	21.4	21.4	69	12.8	0	1	112	0.00	30.075 
06:30	21.9	21.9	21.9	68	13.0	0	1	---	0.00	30.079 
06:35	22.5	22.5	22.5	67	13.2	0	0	---	0.00	30.079 
06:40	23.0	23.0	23.0	66	13.4	0	0	---	0.00	30.079 
06:45	23.5	23.5	23.5	65	13.5	0	1	112	0.00	30.084 
06:50	23.8	23.8	23.8	65	13.8	0	1	112	0.00	30.084 
06:55	24.2	24.2	24.2	64	13.8	0	0	---	0.00	30.084 
07:00	24.4	24.4	24.4	63	13.6	0	0	---	0.00	30.077 
07:05	24.7	24.7	24.7	63	13.9	0	0	---	0.00	30.077 
07:10	24.8	24.8	24.8	62	13.7	0	1	112	0.00	30.077 
07:15	25.1	25.1	25.1	62	13.9	0	0	---	0.00	30.086 
07:20	25.3	25.3	25.3	62	14.1	0	0	---	0.00	30.086 
07:25	25.4	25.4	25.4	62	14.2	0	0	---	0.00	30.086 
07:30	25.7	25.7	25.7	61	14.1	0	1	112	0.00	30.086 
07:35	25.8	25.8	25.8	60	13.9	0	1	112	0.00	30.086 
07:40	26.1	26.1	26.1	59	13.8	0	1	112	0.00	30.086 
07:45	26.3	26.3	26.3	58	13.6	0	1	112	0.00	30.101 
07:50	26.7	26.7	26.7	58	13.9	0	1	112	0.00	30.101 
07:55	27.0	27.0	27.0	57	13.8	0	0	---	0.00	30.101 
08:00	27.3	27.3	27.3	57	14.1	0	0	---	0.00	30.107 
08:05	27.6	27.6	27.6	57	14.4	0	1	112	0.00	30.107 
08:10	27.9	27.9	27.9	56	14.3	0	1	112	0.00	30.107 
08:15	28.1	28.1	28.1	55	14.0	0	1	112	0.00	30.113 
08:20	28.2	28.2	28.2	55	14.1	0	1	112	0.00	30.113 
08:25	28.2	28.2	28.2	55	14.1	0	0	---	0.00	30.113 
08:30	28.4	28.4	28.4	56	14.7	0	1	112	0.00	30.117 
08:35	28.5	28.5	28.5	55	14.4	0	1	112	0.00	30.117 
08:40	28.7	28.7	28.7	55	14.6	0	1	112	0.00	30.117 
08:45	29.0	29.0	29.0	54	14.5	0	1	112	0.00	30.115 
08:50	29.3	29.3	29.3	54	14.7	0	1	112	0.00	30.115 
08:55	29.5	29.5	29.5	53	14.5	0	1	112	0.00	30.115 
09:00	29.7	29.7	29.7	54	15.1	0	0	---	0.00	30.115 
09:05	30.0	30.0	30.0	54	15.4	0	0	---	0.00	30.115 
09:10	30.1	30.1	30.1	54	15.5	0	0	---	0.00	30.115 
09:15	30.3	30.3	30.3	54	15.7	0	0	---	0.00	30.123 
09:20	30.4	30.4	30.4	53	15.3	0	1	112	0.00	30.123 
09:25	30.7	30.7	30.7	53	15.6	0	1	112	0.00	30.123 
09:30	30.9	30.9	30.9	53	15.8	0	1	112	0.00	30.116 
09:35	31.3	31.3	31.3	54	16.6	0	0	---	0.00	30.116 
09:40	31.6	31.6	31.6	54	16.9	0	1	112	0.00	30.116 
09:45	31.9	31.9	31.9	52	16.3	0	2	112	0.00	30.119 
09:50	32.2	32.2	32.2	51	16.1	0	1	112	0.00	30.119 
09:55	32.4	32.4	32.4	50	15.9	0	1	112	0.00	30.119 
10:00	32.5	32.5	32.5	50	16.0	0	1	112	0.00	30.120 
10:05	32.7	32.7	32.7	50	16.1	0	1	112	0.00	30.120 
10:10	32.9	32.9	32.9	50	16.3	0	2	112	0.00	30.120 
10:15	33.2	33.2	33.2	49	16.1	0	1	112	0.00	30.119 
10:20	33.4	33.4	33.4	49	16.3	0	1	112	0.00	30.119 
10:25	33.5	33.5	33.5	49	16.4	0	1	112	0.00	30.119 
10:30	33.7	33.7	33.7	49	16.6	0	2	112	0.00	30.125 
10:35	33.7	33.7	33.7	50	17.1	0	1	112	0.00	30.125 
10:40	33.8	33.8	33.8	49	16.7	0	2	112	0.00	30.125 
10:45	34.0	34.0	34.0	48	16.4	0	2	112	0.00	30.124 
10:50	34.3	34.3	34.3	48	16.7	0	1	112	0.00	30.124 
10:55	34.6	34.6	34.6	48	16.9	0	2	112	0.00	30.124 
11:00	34.7	34.7	34.7	47	16.6	0	2	112	0.00	30.126 
11:05	35.0	35.0	35.0	47	16.8	0	2	112	0.00	30.126 
11:10	35.5	35.5	35.5	47	17.3	1	3	112	0.00	30.126 
11:15	35.6	35.6	35.6	46	16.9	1	3	112	0.00	30.130 
11:20	35.6	35.6	35.6	46	16.9	2	4	112	0.00	30.130 
11:25	35.6	35.6	35.6	46	16.9	2	3	248	0.00	30.130 
11:30	35.8	35.8	35.8	46	17.1	2	4	248	0.00	30.139 
11:35	35.8	35.8	35.8	46	17.1	2	5	270	0.00	30.139 
11:40	35.8	35.8	35.8	46	17.1	2	5	270	0.00	30.139 
11:45	35.5	35.5	35.5	46	16.8	2	4	270	0.00	30.144 
11:50	35.5	35.5	35.5	47	17.3	1	4	270	0.00	30.144 
11:55	35.5	35.5	35.5	47	17.3	1	4	270	0.00	30.144 
12:00	35.5	35.5	35.5	47	17.3	2	4	270	0.00	30.130 
12:05	35.8	35.8	35.8	49	18.5	1	3	270	0.00	30.130 
12:10	36.0	36.0	36.0	47	17.7	1	4	248	0.00	30.130 
12:15	36.2	36.2	36.2	47	17.9	1	3	248	0.00	30.126 
12:20	36.5	36.5	36.5	47	18.2	1	3	248	0.00	30.126 
12:25	36.5	36.5	36.5	47	18.2	1	3	248	0.00	30.126 
12:30	36.5	36.5	36.5	47	18.2	1	3	248	0.00	30.145 
12:35	36.0	36.0	36.0	49	18.7	2	4	270	0.00	30.145 
12:40	35.9	35.9	35.9	49	18.6	2	4	270	0.00	30.145 
12:45	35.9	35.9	35.9	49	18.6	2	3	292	0.00	30.146 
12:50	35.9	35.9	35.9	50	19.1	2	3	292	0.00	30.146 
12:55	35.9	35.9	35.9	50	19.1	1	3	292	0.00	30.146 
13:00	35.6	35.6	35.6	50	18.8	2	4	292	0.00	30.156 
13:05	35.3	35.3	35.3	50	18.5	2	5	270	0.00	30.156 
13:10	35.3	35.3	35.3	50	18.5	1	4	270	0.00	30.156 
13:15	35.6	35.6	35.6	50	18.8	1	5	270	0.00	30.135 
13:20	36.0	36.0	36.0	50	19.2	1	3	270	0.00	30.135 
13:25	36.0	36.0	36.0	49	18.7	2	5	270	0.00	30.135 
13:30	35.8	35.8	35.8	48	18.1	3	6	315	0.00	30.136 
13:35	35.6	35.6	35.6	49	18.3	1	5	315	0.00	30.136 
13:40	35.5	35.5	35.5	50	18.7	1	5	338	0.00	30.136 
13:45	35.0	35.0	35.0	50	18.3	2	6	315	0.00	30.138 
13:50	34.7	34.7	34.7	51	18.4	2	6	338	0.00	30.138 
13:55	34.9	34.9	34.9	52	19.1	1	4	292	0.00	30.138 
14:00	34.9	34.9	34.9	52	19.1	1	4	270	0.00	30.129 
14:05	34.9	34.9	34.9	54	20.0	1	4	338	0.00	30.129 
14:10	34.9	34.9	34.9	56	20.8	0	2	315	0.00	30.129 
14:15	34.4	34.4	34.4	58	21.2	2	3	270	0.00	30.130 
14:20	34.1	34.1	34.1	60	21.7	1	5	270	0.00	30.130 
14:25	34.0	34.0	34.0	61	22.0	1	5	270	0.00	30.130 
14:30	33.8	33.8	33.8	62	22.2	1	4	315	0.00	30.132 
14:35	33.7	33.7	33.7	62	22.1	1	4	315	0.00	30.132 
14:40	33.8	33.8	33.8	63	22.6	1	4	315	0.00	30.132 
14:45	33.7	33.7	33.7	64	22.8	1	3	0	0.00	30.139 
14:50	33.5	33.5	33.5	64	22.6	1	4	315	0.00	30.139 
14:55	33.4	33.4	33.4	65	22.9	1	4	292	0.00	30.139 
15:00	33.1	33.1	33.1	65	22.6	1	4	292	0.00	30.149 
15:05	32.8	32.8	32.8	67	23.1	1	6	0	0.00	30.149 
15:10	32.5	32.5	32.5	69	23.5	1	3	0	0.00	30.149 
15:15	32.4	32.4	32.4	70	23.7	1	5	315	0.00	30.158 
15:20	32.1	32.1	32.1	71	23.8	1	4	292	0.00	30.158 
15:25	31.6	31.6	31.6	73	24.0	1	3	292	0.00	30.158 
15:30	31.3	31.3	31.3	74	24.0	1	4	270	0.00	30.161 
15:35	31.0	31.0	31.0	75	24.0	1	4	270	0.00	30.161 
15:40	30.7	30.7	30.7	76	24.0	1	3	0	0.00	30.161 
15:45	30.3	30.3	30.3	76	23.7	2	5	338	0.00	30.164 
15:50	30.0	30.0	30.0	77	23.7	2	7	338	0.00	30.164 
15:55	29.7	29.7	29.7	77	23.4	2	5	270	0.00	30.164 
16:00	29.5	29.5	29.5	77	23.2	1	6	292	0.00	30.162 
16:05	29.4	29.4	29.4	77	23.1	2	4	292	0.00	30.162 
16:10	29.4	29.4	29.4	77	23.1	1	6	0	0.00	30.162 
16:15	29.3	29.3	29.3	77	23.0	2	5	270	0.00	30.169 
16:20	29.1	29.1	29.1	77	22.8	1	4	270	0.00	30.169 
16:25	29.0	29.0	29.0	77	22.7	1	3	270	0.00	30.169 
16:30	29.0	29.0	29.0	78	23.0	1	3	270	0.00	30.165 
16:35	28.7	28.7	28.7	78	22.7	1	3	270	0.00	30.165 
16:40	28.7	28.7	28.7	78	22.7	0	2	292	0.00	30.165 
16:45	28.5	28.5	28.5	78	22.5	1	4	315	0.00	30.166 
16:50	28.4	28.4	28.4	78	22.4	1	4	315	0.00	30.166 
16:55	28.1	28.1	28.1	78	22.1	1	4	0	0.00	30.166 
17:00	28.1	28.1	28.1	78	22.1	1	3	292	0.00	30.169 
17:05	28.1	28.1	28.1	78	22.1	1	3	292	0.00	30.169 
17:10	27.9	27.9	27.9	78	21.9	1	4	292	0.00	30.169 
17:15	27.8	27.8	27.8	78	21.8	1	4	292	0.00	30.176 
17:20	27.8	27.8	27.8	78	21.8	1	3	315	0.00	30.176 
17:25	27.8	27.8	27.8	78	21.8	1	3	338	0.00	30.176 
17:30	27.8	27.8	27.8	79	22.2	0	3	270	0.00	30.181 
17:35	27.8	27.8	27.8	78	21.8	1	4	315	0.00	30.181 
17:40	27.6	27.6	27.6	78	21.7	1	5	315	0.00	30.181 
17:45	27.6	27.6	27.6	78	21.7	1	4	292	0.00	30.181 
17:50	27.5	27.5	27.5	77	21.3	1	7	292	0.00	30.181 
17:55	27.3	27.3	27.3	77	21.1	2	6	315	0.00	30.181 
18:00	27.3	27.3	27.3	77	21.1	1	3	315	0.00	30.185 
18:05	27.3	27.3	27.3	76	20.8	1	5	315	0.00	30.185 
18:10	27.3	27.3	27.3	76	20.8	1	5	292	0.00	30.185 
18:15	27.3	27.3	27.3	75	20.4	1	3	292	0.00	30.190 
18:20	27.2	27.2	27.2	75	20.3	1	5	292	0.00	30.190 
18:25	27.2	27.2	27.2	75	20.3	1	4	0	0.00	30.190 
18:30	27.0	27.0	27.0	74	19.8	2	6	270	0.00	30.202 
18:35	27.0	27.0	27.0	73	19.5	1	6	270	0.00	30.202 
18:40	26.7	26.7	26.7	73	19.2	2	5	338	0.00	30.202 
18:45	26.7	26.7	26.7	72	18.9	2	6	0	0.00	30.208 
18:50	26.6	26.6	26.6	73	19.1	2	4	315	0.00	30.208 
18:55	26.4	26.4	26.4	74	19.3	1	5	270	0.00	30.208 
19:00	26.3	26.3	26.3	75	19.5	1	3	292	0.00	30.204 
19:05	26.1	26.1	26.1	75	19.3	1	4	292	0.00	30.204 
19:10	26.1	26.1	26.1	76	19.6	1	3	315	0.00	30.204 
19:15	26.1	26.1	26.1	76	19.6	1	3	292	0.00	30.193 
19:20	26.0	26.0	26.0	77	19.8	0	2	292	0.00	30.193 
19:25	26.0	26.0	26.0	77	19.8	0	3	292	0.00	30.193 
19:30	25.8	25.8	25.8	77	19.6	0	2	292	0.00	30.193 
19:35	25.8	25.8	25.8	78	19.9	0	3	292	0.00	30.193 
19:40	25.7	25.7	25.7	77	19.5	1	3	292	0.00	30.193 
19:45	25.7	25.7	25.7	78	19.8	1	4	338	0.00	30.202 
19:50	25.6	25.6	25.6	78	19.7	0	3	338	0.00	30.202 
19:55	25.4	25.4	25.4	78	19.5	1	4	315	0.00	30.202 
20:00	25.3	25.3	25.3	77	19.1	2	4	338	0.00	30.214 
20:05	25.1	25.1	25.1	77	18.9	2	4	315	0.00	30.214 
20:10	24.8	24.8	24.8	77	18.6	1	3	315	0.00	30.214 
20:15	24.7	24.7	24.7	75	17.9	1	4	0	0.00	30.213 
20:20	24.5	24.5	24.5	75	17.7	1	3	338	0.00	30.213 
20:25	24.4	24.4	24.4	75	17.6	1	4	338	0.00	30.213 
20:30	24.4	24.4	24.4	75	17.6	1	4	338	0.00	30.209 
20:35	24.2	24.2	24.2	74	17.1	1	4	338	0.00	30.209 
20:40	24.1	24.1	24.1	74	17.0	1	3	315	0.00	30.209 
20:45	24.1	24.1	24.1	74	17.0	2	6	338	0.00	30.224 
20:50	23.8	23.8	23.8	73	16.4	2	6	338	0.00	30.224 
20:55	23.6	23.6	23.6	72	15.9	2	4	315	0.00	30.224 
21:00	23.5	23.5	23.5	71	15.5	3	9	270	0.00	30.238 
21:05	23.3	23.3	23.3	71	15.3	1	5	338	0.00	30.238 
21:10	23.3	23.3	23.3	70	15.0	1	6	338	0.00	30.238 
21:15	23.2	23.2	23.2	70	14.9	1	3	338	0.00	30.238 
21:20	23.0	23.0	23.0	71	15.0	1	4	338	0.00	30.238 
21:25	23.0	23.0	23.0	71	15.0	1	3	0	0.00	30.238 
21:30	22.9	22.9	22.9	73	15.6	0	3	338	0.00	30.248 
21:35	22.9	22.9	22.9	75	16.2	0	2	338	0.00	30.248 
21:40	22.7	22.7	22.7	77	16.6	1	3	338	0.00	30.248 
21:45	22.5	22.5	22.5	78	16.7	1	2	338	0.00	30.252 
21:50	22.2	22.2	22.2	80	17.0	1	4	270	0.00	30.252 
21:55	22.1	22.1	22.1	81	17.2	1	4	270	0.00	30.252 
22:00	21.9	21.9	21.9	82	17.3	0	3	270	0.00	30.252 
22:05	22.1	22.1	22.1	83	17.7	0	2	270	0.00	30.252 
22:10	21.9	21.9	21.9	83	17.5	0	3	292	0.00	30.252 
22:15	21.8	21.8	21.8	84	17.7	1	5	315	0.00	30.252 
22:20	21.8	21.8	21.8	84	17.7	0	4	270	0.00	30.252 
22:25	21.8	21.8	21.8	85	18.0	1	3	270	0.00	30.252 
22:30	21.8	21.8	21.8	85	18.0	0	2	292	0.00	30.254 
22:35	21.6	21.6	21.6	85	17.8	1	2	292	0.00	30.254 
22:40	21.6	21.6	21.6	86	18.1	0	3	292	0.00	30.254 
22:45	21.6	21.6	21.6	86	18.1	0	2	292	0.00	30.266 
22:50	21.4	21.4	21.4	86	17.9	0	4	292	0.00	30.266 
22:55	21.4	21.4	21.4	86	17.9	0	3	292	0.00	30.266 
23:00	21.4	21.4	21.4	86	17.9	1	3	292	0.00	30.259 
23:05	21.3	21.3	21.3	86	17.8	1	4	292	0.00	30.259 
23:10	21.1	21.1	21.1	86	17.6	0	4	270	0.00	30.259 
23:15	21.1	21.1	21.1	87	17.8	0	2	292	0.00	30.264 
23:20	21.1	21.1	21.1	87	17.8	0	2	292	0.00	30.264 
23:25	21.0	21.0	21.0	87	17.8	1	3	270	0.00	30.264 
23:30	20.8	20.8	20.8	87	17.6	0	2	270	0.00	30.253 
23:35	20.8	20.8	20.8	87	17.6	0	2	270	0.00	30.253 
23:40	20.6	20.6	20.6	87	17.4	0	1	270	0.00	30.253 
23:45	20.6	20.6	20.6	87	17.4	0	2	270	0.00	30.255 
23:50	20.5	20.5	20.5	87	17.3	0	2	270	0.00	30.255 
23:55	20.5	20.5	20.5	87	17.3	0	3	270	0.00	30.255 

CoCoRaHS
IN-AL-39
A2 Web Hosting
Creative Commons License
GoDaddy
search engine by freefind advanced

loaded 2018-11-16 23:15:25 • last modified 2010-11-18 10:43:29
Privacy PolicyDisclaimer
• wx.awcolley.com is powered by PmWiki v.2002016 •
• all content (unless otherwise noted) © 2018 A W Colley